TimeEST,TemperatureF,Dew PointF,Humidity,Sea Level PressureIn,VisibilityMPH,Wind Direction,Wind SpeedMPH,Gust SpeedMPH,PrecipitationIn,Events,Conditions,WindDirDegrees,DateUTC
12:15 AM,41.9,41.9,100,29.97,4.0,NNW,4.6,-,N/A,,Drizzle,340,2013-01-02 05:15:00
12:35 AM,40.8,40.8,100,29.95,5.0,North,9.2,-,0.01,Rain,Rain,350,2013-01-02 05:35:00
12:55 AM,39.2,39.2,100,29.95,7.0,NNW,6.9,-,0.02,,Drizzle,340,2013-01-02 05:55:00
1:15 AM,38.3,38.3,100,29.95,10.0,NNW,9.2,-,N/A,,Light Drizzle,330,2013-01-02 06:15:00
1:35 AM,37.8,37.8,100,29.97,10.0,NNW,10.4,-,N/A,,Overcast,340,2013-01-02 06:35:00
1:55 AM,37.8,37.8,100,29.97,10.0,NNW,8.1,-,N/A,,Overcast,330,2013-01-02 06:55:00
2:15 AM,38.3,37.4,97,29.98,10.0,North,11.5,-,N/A,Rain,Light Rain,350,2013-01-02 07:15:00
2:35 AM,38.3,37.4,97,29.98,10.0,NNW,5.8,-,N/A,,Overcast,330,2013-01-02 07:35:00
3:15 AM,37.8,36.3,95,30.00,10.0,NNW,4.6,-,N/A,,Overcast,340,2013-01-02 08:15:00
3:35 AM,37.4,36.1,95,29.99,10.0,Calm,Calm,-,N/A,,Drizzle,0,2013-01-02 08:35:00
4:15 AM,36.9,36.3,98,29.99,10.0,WSW,3.5,-,N/A,,Overcast,250,2013-01-02 09:15:00
4:35 AM,36.5,36.5,100,29.98,10.0,NW,4.6,-,N/A,,Overcast,310,2013-01-02 09:35:00
4:55 AM,36.5,35.8,97,29.99,10.0,NW,4.6,-,N/A,,Overcast,320,2013-01-02 09:55:00
5:15 AM,36.1,35.6,98,30.00,10.0,NNW,3.5,-,N/A,,Overcast,340,2013-01-02 10:15:00
5:35 AM,36.1,35.4,97,29.99,10.0,NNW,4.6,-,N/A,,Overcast,340,2013-01-02 10:35:00
6:15 AM,35.8,33.8,92,30.02,10.0,North,8.1,-,N/A,,Overcast,360,2013-01-02 11:15:00
6:35 AM,35.6,33.8,93,30.03,10.0,North,6.9,-,N/A,,Overcast,360,2013-01-02 11:35:00
6:55 AM,35.2,34.0,95,30.03,7.0,North,3.5,-,N/A,,Overcast,360,2013-01-02 11:55:00
7:15 AM,35.2,33.8,94,30.05,7.0,North,9.2,-,N/A,,Overcast,10,2013-01-02 12:15:00
7:35 AM,34.9,33.8,96,30.06,5.0,North,5.8,-,N/A,Snow,Light Snow,360,2013-01-02 12:35:00
8:15 AM,34.9,33.3,94,30.08,7.0,North,8.1,-,N/A,,Overcast,350,2013-01-02 13:15:00
8:35 AM,34.9,32.9,92,30.07,10.0,North,6.9,-,N/A,,Overcast,350,2013-01-02 13:35:00
9:15 AM,35.2,32.7,91,30.08,10.0,North,8.1,-,N/A,,Overcast,360,2013-01-02 14:15:00
9:35 AM,35.6,32.4,88,30.09,10.0,North,6.9,-,N/A,,Overcast,350,2013-01-02 14:35:00
9:55 AM,36.1,32.2,86,30.09,10.0,North,4.6,-,N/A,,Overcast,360,2013-01-02 14:55:00
10:15 AM,36.7,32.4,84,30.09,10.0,North,4.6,-,N/A,,Overcast,350,2013-01-02 15:15:00
10:35 AM,36.5,32.0,84,30.11,10.0,North,4.6,-,N/A,,Overcast,360,2013-01-02 15:35:00
10:55 AM,36.7,32.0,83,30.11,10.0,North,3.5,-,N/A,,Overcast,10,2013-01-02 15:55:00
11:15 AM,36.7,32.2,84,30.10,10.0,Calm,Calm,-,N/A,,Overcast,0,2013-01-02 16:15:00
11:35 AM,37.2,32.5,83,30.10,10.0,NE,3.5,-,N/A,,Overcast,50,2013-01-02 16:35:00
11:55 AM,36.7,32.0,83,30.10,10.0,North,3.5,-,N/A,,Overcast,360,2013-01-02 16:55:00
12:15 PM,37.2,32.4,83,30.09,10.0,Calm,Calm,-,N/A,,Overcast,0,2013-01-02 17:15:00
12:35 PM,37.4,32.2,81,30.09,10.0,North,3.5,-,N/A,,Overcast,360,2013-01-02 17:35:00
12:55 PM,37.6,32.0,80,30.08,10.0,NW,3.5,-,N/A,,Overcast,310,2013-01-02 17:55:00
1:15 PM,37.4,32.0,81,30.08,10.0,NW,8.1,-,N/A,,Overcast,320,2013-01-02 18:15:00
1:35 PM,37.2,32.2,82,30.08,10.0,NW,5.8,-,N/A,,Overcast,320,2013-01-02 18:35:00
1:55 PM,36.7,32.0,83,30.07,10.0,NNW,5.8,-,N/A,,Overcast,340,2013-01-02 18:55:00
2:15 PM,36.9,32.2,83,30.07,10.0,North,5.8,-,N/A,,Overcast,350,2013-01-02 19:15:00
2:35 PM,36.5,32.0,84,30.06,10.0,NNW,4.6,-,N/A,,Overcast,340,2013-01-02 19:35:00
2:55 PM,36.5,31.5,82,30.07,10.0,NNW,4.6,-,N/A,,Overcast,340,2013-01-02 19:55:00
3:15 PM,36.5,31.6,83,30.08,10.0,NNW,4.6,-,N/A,,Overcast,340,2013-01-02 20:15:00
3:35 PM,36.5,31.6,83,30.09,10.0,North,4.6,-,N/A,,Overcast,360,2013-01-02 20:35:00
3:55 PM,36.5,31.6,83,30.09,10.0,North,4.6,-,N/A,,Overcast,360,2013-01-02 20:55:00
4:15 PM,36.5,31.8,83,30.09,10.0,NNW,5.8,-,N/A,,Overcast,340,2013-01-02 21:15:00
4:35 PM,36.5,32.0,84,30.10,10.0,Calm,Calm,-,N/A,,Overcast,0,2013-01-02 21:35:00
4:55 PM,36.1,31.8,84,30.09,10.0,NW,4.6,-,N/A,,Overcast,320,2013-01-02 21:55:00
5:15 PM,36.0,31.8,85,30.10,10.0,Calm,Calm,-,N/A,,Overcast,0,2013-01-02 22:15:00
5:35 PM,35.8,32.0,86,30.09,10.0,Calm,Calm,-,N/A,,Overcast,0,2013-01-02 22:35:00
6:15 PM,35.6,31.6,85,30.09,10.0,Calm,Calm,-,N/A,,Overcast,0,2013-01-02 23:15:00
6:35 PM,35.6,32.0,87,30.11,10.0,Calm,Calm,-,N/A,,Overcast,0,2013-01-02 23:35:00
6:55 PM,35.6,32.0,87,30.11,10.0,Calm,Calm,-,N/A,,Overcast,0,2013-01-02 23:55:00
7:15 PM,35.2,32.0,88,30.11,10.0,Calm,Calm,-,N/A,,Overcast,0,2013-01-03 00:15:00
7:35 PM,35.2,32.0,88,30.11,10.0,Calm,Calm,-,N/A,,Overcast,0,2013-01-03 00:35:00
7:55 PM,35.2,32.0,88,30.11,10.0,Calm,Calm,-,N/A,,Overcast,0,2013-01-03 00:55:00
8:15 PM,35.1,32.0,89,30.11,10.0,Calm,Calm,-,N/A,,Overcast,0,2013-01-03 01:15:00
8:35 PM,35.1,32.0,89,30.11,10.0,Calm,Calm,-,N/A,,Overcast,0,2013-01-03 01:35:00
8:55 PM,34.7,32.0,90,30.11,10.0,Calm,Calm,-,N/A,,Overcast,0,2013-01-03 01:55:00
9:15 PM,34.5,32.0,90,30.11,10.0,Calm,Calm,-,N/A,,Overcast,0,2013-01-03 02:15:00
9:35 PM,34.5,32.0,90,30.11,10.0,Calm,Calm,-,N/A,,Overcast,0,2013-01-03 02:35:00
9:55 PM,34.7,32.0,90,30.12,10.0,Calm,Calm,-,N/A,,Overcast,0,2013-01-03 02:55:00
10:15 PM,34.7,32.0,90,30.13,10.0,Calm,Calm,-,N/A,,Overcast,0,2013-01-03 03:15:00
10:35 PM,34.7,32.4,91,30.13,10.0,Calm,Calm,-,N/A,,Overcast,0,2013-01-03 03:35:00
10:55 PM,34.7,32.0,90,30.12,10.0,Calm,Calm,-,N/A,,Overcast,0,2013-01-03 03:55:00
11:15 PM,34.7,32.0,90,30.12,10.0,Calm,Calm,-,N/A,,Overcast,0,2013-01-03 04:15:00
11:35 PM,34.7,32.2,91,30.12,10.0,Calm,Calm,-,N/A,,Overcast,0,2013-01-03 04:35:00
11:55 PM,34.7,31.8,89,30.12,10.0,Calm,Calm,-,N/A,,Overcast,0,2013-01-03 04:55:00